createdAt,value
2022-08-09T00:11:25.004Z,1020.58
2022-08-09T00:26:37.969Z,1020.59
2022-08-09T00:44:19.578Z,1020.71
2022-08-09T00:57:10.939Z,1020.82
2022-08-09T01:12:26.876Z,1020.87
2022-08-09T01:27:42.810Z,1020.88
2022-08-09T01:42:59.776Z,1020.85
2022-08-09T01:58:16.742Z,1020.95
2022-08-09T02:13:37.639Z,1020.92
2022-08-09T02:28:49.682Z,1021.04
2022-08-09T02:44:10.562Z,1021.07
2022-08-09T02:59:26.354Z,1021.18
2022-08-09T03:14:38.614Z,1021.27
2022-08-09T03:29:58.017Z,1021.23
2022-08-09T03:45:11.522Z,1021.25
2022-08-09T04:00:28.530Z,1021.32
2022-08-09T04:16:17.934Z,1021.33
2022-08-09T04:31:05.861Z,1021.56
2022-08-09T04:46:19.293Z,1021.71
2022-08-09T05:01:34.378Z,1021.9
2022-08-09T05:16:59.373Z,1021.99
2022-08-09T05:32:06.339Z,1022.08
2022-08-09T05:47:24.297Z,1022.16
2022-08-09T06:02:42.323Z,1022.27
2022-08-09T06:17:57.210Z,1022.4
2022-08-09T06:33:40.028Z,1022.31
2022-08-09T06:48:31.311Z,1022.41
2022-08-09T07:03:52.345Z,1022.46
2022-08-09T07:19:02.081Z,1022.48
2022-08-09T07:34:20.939Z,1022.56
2022-08-09T07:50:05.508Z,1022.41
2022-08-09T08:04:54.098Z,1022.44
2022-08-09T08:20:13.171Z,1022.33
2022-08-09T08:35:37.095Z,1022.22
2022-08-09T08:50:45.482Z,1022.13
2022-08-09T09:06:04.894Z,1022.09
2022-08-09T09:21:14.821Z,1021.95
2022-08-09T09:36:31.783Z,1021.73
2022-08-09T09:51:51.383Z,1021.6
2022-08-09T10:07:10.087Z,1021.45
2022-08-09T10:22:29.289Z,1021.25
2022-08-09T10:37:39.060Z,1021.05
2022-08-09T10:52:55.747Z,1020.85
2022-08-09T11:08:11.593Z,1020.76
2022-08-09T11:23:30.139Z,1020.59
2022-08-09T11:38:44.557Z,1020.49
2022-08-09T11:54:05.158Z,1020.3
2022-08-09T12:09:21.202Z,1020.01
2022-08-09T12:24:35.471Z,1019.83
2022-08-09T12:39:51.527Z,1019.59
2022-08-09T12:56:15.185Z,1019.45
2022-08-09T13:10:24.378Z,1019.2
2022-08-09T13:25:42.360Z,1019.08
2022-08-09T13:41:46.925Z,1018.87
2022-08-09T13:56:16.316Z,1018.7
2022-08-09T14:11:32.269Z,1018.71
2022-08-09T14:26:51.236Z,1018.65
2022-08-09T14:42:04.211Z,1018.39
2022-08-09T14:57:21.151Z,1018.17
2022-08-09T15:12:37.165Z,1018.35
2022-08-09T15:28:00.683Z,1018.21
2022-08-09T15:43:13.245Z,1018.02
2022-08-09T15:58:29.032Z,1017.81
2022-08-09T16:14:04.304Z,1017.95
2022-08-09T16:29:05.843Z,1017.98
2022-08-09T16:44:27.766Z,1017.76
2022-08-09T16:59:34.991Z,1017.73
2022-08-09T17:14:57.164Z,1017.79
2022-08-09T17:30:12.613Z,1017.83
2022-08-09T17:45:37.435Z,1017.95
2022-08-09T18:00:46.454Z,1018.11
2022-08-09T18:16:07.706Z,1018.26
2022-08-09T18:31:12.740Z,1018.35
2022-08-09T18:46:47.572Z,1018.5
2022-08-09T19:01:47.762Z,1018.75
2022-08-09T19:17:03.649Z,1018.87
2022-08-09T19:32:19.658Z,1018.99
2022-08-09T19:47:36.585Z,1019.13
2022-08-09T20:04:10.033Z,1019.19
2022-08-09T20:04:24.113Z,1019.19
2022-08-09T20:18:10.527Z,1019.26
2022-08-09T20:33:26.499Z,1019.46
2022-08-09T20:48:43.463Z,1019.58
2022-08-09T21:05:49.449Z,1019.67
2022-08-09T21:20:14.549Z,1019.63
2022-08-09T21:34:31.369Z,1019.76
2022-08-09T21:49:48.342Z,1019.76
2022-08-09T22:05:16.838Z,1019.88
2022-08-09T22:20:27.508Z,1019.92
2022-08-09T22:36:01.087Z,1020.18
2022-08-09T22:50:55.239Z,1020.32
2022-08-09T23:06:14.124Z,1020.46
2022-08-09T23:21:32.840Z,1020.44
2022-08-09T23:36:43.111Z,1020.51
2022-08-09T23:52:01.121Z,1020.48
